Time;durP1;ratioP1;P1;durP2;ratioP2;P2;SDS_P1;SDS_P2;PMS_P1;PMS_P2;Temp;Humidity;BMP_temperature;BMP_pressure;BME280_temperature;BME280_humidity;BME280_pressure;Samples;Min_cycle;Max_cycle;Signal;HPM_P1;HPM_P2
2022/01/08 00:00:09;;;;;;;30.45;20.83;;;;;;;;;;5116519;28;20285;-65
2022/01/08 00:02:36;;;;;;;27.65;20.52;;;;;;;;;;5116664;28;20242;-65
2022/01/08 00:05:04;;;;;;;30.95;21.20;;;;;;;;;;5117385;28;20304;-65
2022/01/08 00:07:31;;;;;;;34.88;21.52;;;;;;;;;;5116365;28;20187;-65
2022/01/08 00:10:00;;;;;;;26.30;21.00;;;;;;;;;;5116634;28;20249;-65
2022/01/08 00:12:27;;;;;;;28.58;19.95;;;;;;;;;;5116851;28;20279;-65
2022/01/08 00:14:54;;;;;;;33.92;19.88;;;;;;;;;;5116213;28;20221;-64
2022/01/08 00:17:23;;;;;;;34.10;21.20;;;;;;;;;;5116459;28;20596;-65
2022/01/08 00:19:51;;;;;;;28.13;20.25;;;;;;;;;;5116407;28;20200;-65
2022/01/08 00:22:18;;;;;;;33.92;20.45;;;;;;;;;;5114893;28;20290;-65
2022/01/08 00:24:47;;;;;;;27.70;19.15;;;;;;;;;;5115959;28;20279;-64
2022/01/08 00:27:15;;;;;;;29.60;21.20;;;;;;;;;;5115921;28;20648;-64
2022/01/08 00:29:42;;;;;;;30.50;19.60;;;;;;;;;;5115781;28;20305;-65
2022/01/08 00:32:10;;;;;;;30.17;20.02;;;;;;;;;;5116643;28;20231;-67
2022/01/08 00:34:37;;;;;;;35.45;20.70;;;;;;;;;;5115773;28;20196;-66
2022/01/08 00:37:06;;;;;;;32.42;21.42;;;;;;;;;;5115824;28;20280;-65
2022/01/08 00:39:33;;;;;;;35.42;20.38;;;;;;;;;;5115989;28;20200;-65
2022/01/08 00:42:01;;;;;;;34.60;22.25;;;;;;;;;;5116439;28;20185;-65
2022/01/08 00:44:29;;;;;;;40.85;23.02;;;;;;;;;;5115947;28;20589;-66
2022/01/08 00:46:57;;;;;;;33.58;21.10;;;;;;;;;;5115578;28;20221;-65
2022/01/08 00:49:25;;;;;;;29.50;20.38;;;;;;;;;;5115536;28;20229;-65
2022/01/08 00:51:52;;;;;;;33.55;22.77;;;;;;;;;;5115836;28;20187;-65
2022/01/08 00:54:19;;;;;;;34.45;23.10;;;;;;;;;;5115467;28;20186;-65
2022/01/08 00:56:48;;;;;;;33.95;23.70;;;;;;;;;;5115698;28;20219;-65
2022/01/08 00:59:15;;;;;;;26.85;20.00;;;;;;;;;;5115366;28;20196;-64
2022/01/08 01:01:44;;;;;;;29.65;22.05;;;;;;;;;;5115997;28;20230;-64
2022/01/08 01:04:11;;;;;;;31.98;20.88;;;;;;;;;;5115848;28;20227;-66
2022/01/08 01:06:38;;;;;;;28.63;20.10;;;;;;;;;;5115830;28;20311;-64
2022/01/08 01:09:06;;;;;;;30.13;21.38;;;;;;;;;;5115125;28;20220;-66
2022/01/08 01:11:33;;;;;;;33.17;21.95;;;;;;;;;;5115482;28;20273;-65
2022/01/08 01:14:00;;;;;;;30.77;19.35;;;;;;;;;;5114911;28;20280;-66
2022/01/08 01:16:27;;;;;;;30.55;21.88;;;;;;;;;;5115067;28;20192;-65
2022/01/08 01:18:58;;;;;;;37.35;21.83;;;;;;;;;;5115313;28;20274;-65
2022/01/08 01:21:25;;;;;;;31.95;21.50;;;;;;;;;;5115320;28;20216;-64
2022/01/08 01:23:53;;;;;;;31.60;20.55;;;;;;;;;;5114896;28;20240;-65
2022/01/08 01:26:24;;;;;;;30.85;20.77;;;;;;;;;;5114894;28;20204;-65
2022/01/08 01:28:57;;;;;;;28.60;20.73;;;;;;;;;;5115929;28;20190;-65
2022/01/08 01:48:05;;;;;;;28.38;20.10;;;;;;;;;;5052044;28;20181;-64
2022/01/08 01:50:34;;;;;;;27.48;20.15;;;;;;;;;;5086886;28;20788;-65
2022/01/08 01:53:01;;;;;;;31.15;18.95;;;;;;;;;;5114451;28;20226;-65
2022/01/08 01:55:28;;;;;;;27.73;20.33;;;;;;;;;;5115122;28;20224;-64
2022/01/08 01:57:56;;;;;;;30.33;20.23;;;;;;;;;;5114317;28;20700;-65
2022/01/08 02:00:23;;;;;;;26.48;18.63;;;;;;;;;;5114261;28;20283;-65
2022/01/08 02:02:50;;;;;;;32.38;19.55;;;;;;;;;;5113987;28;20232;-65
2022/01/08 02:05:17;;;;;;;33.72;19.75;;;;;;;;;;5115234;28;20210;-65
2022/01/08 02:07:46;;;;;;;29.77;20.00;;;;;;;;;;5114169;28;20202;-65
2022/01/08 02:10:14;;;;;;;35.05;20.50;;;;;;;;;;5114401;28;20215;-65
2022/01/08 02:12:41;;;;;;;37.05;21.50;;;;;;;;;;5114651;28;20191;-65
2022/01/08 02:15:08;;;;;;;25.02;18.88;;;;;;;;;;5114105;28;20207;-65
2022/01/08 02:17:36;;;;;;;41.15;19.70;;;;;;;;;;5114348;28;20243;-65
2022/01/08 02:20:04;;;;;;;35.95;20.00;;;;;;;;;;5114034;28;20702;-65
2022/01/08 02:22:32;;;;;;;35.25;20.35;;;;;;;;;;5114357;28;20604;-64
2022/01/08 02:24:59;;;;;;;33.25;20.13;;;;;;;;;;5113943;28;20287;-65
2022/01/08 02:27:26;;;;;;;34.78;20.05;;;;;;;;;;5115008;28;20275;-65
2022/01/08 02:29:54;;;;;;;30.33;20.73;;;;;;;;;;5113851;28;20251;-65
2022/01/08 02:32:26;;;;;;;30.55;21.40;;;;;;;;;;5114810;28;20655;-65
2022/01/08 02:34:53;;;;;;;30.65;21.63;;;;;;;;;;5116493;28;20179;-65
2022/01/08 02:37:25;;;;;;;31.23;20.40;;;;;;;;;;5114229;28;20226;-65
2022/01/08 02:39:53;;;;;;;36.55;21.70;;;;;;;;;;5114159;28;20508;-65
2022/01/08 02:42:20;;;;;;;33.88;20.88;;;;;;;;;;5113775;28;20280;-65
2022/01/08 02:44:48;;;;;;;34.70;21.10;;;;;;;;;;5114177;28;20193;-65
2022/01/08 02:47:16;;;;;;;38.25;20.38;;;;;;;;;;5117248;28;20280;-65
2022/01/08 02:49:44;;;;;;;39.22;22.20;;;;;;;;;;5118306;28;20299;-65
2022/01/08 02:52:12;;;;;;;34.85;22.80;;;;;;;;;;5117909;28;20215;-65
2022/01/08 02:54:40;;;;;;;27.02;19.95;;;;;;;;;;5118195;28;20286;-64
2022/01/08 02:57:08;;;;;;;31.45;21.42;;;;;;;;;;5117857;28;20190;-64
2022/01/08 02:59:35;;;;;;;33.03;20.48;;;;;;;;;;5118131;28;20582;-64
2022/01/08 03:02:02;;;;;;;27.60;20.50;;;;;;;;;;5117744;28;20718;-65
2022/01/08 03:04:30;;;;;;;39.28;22.67;;;;;;;;;;5118031;28;20267;-65
2022/01/08 03:06:57;;;;;;;38.45;20.70;;;;;;;;;;5118028;28;20606;-65
2022/01/08 03:09:26;;;;;;;28.13;20.40;;;;;;;;;;5117507;28;20276;-64
2022/01/08 03:11:54;;;;;;;36.08;21.67;;;;;;;;;;5118694;28;20293;-65
2022/01/08 03:14:22;;;;;;;35.83;21.70;;;;;;;;;;5117772;28;20607;-64
2022/01/08 03:16:49;;;;;;;40.25;22.50;;;;;;;;;;5117772;28;20206;-65
2022/01/08 03:19:16;;;;;;;26.17;19.80;;;;;;;;;;5117411;28;20720;-64
2022/01/08 03:21:46;;;;;;;30.88;20.90;;;;;;;;;;5118221;28;20285;-64
2022/01/08 03:24:17;;;;;;;30.58;20.30;;;;;;;;;;5117627;28;20193;-65
2022/01/08 03:26:44;;;;;;;35.47;22.00;;;;;;;;;;5117289;28;20182;-64
2022/01/08 03:29:13;;;;;;;27.17;21.23;;;;;;;;;;5117267;28;20254;-64
2022/01/08 03:31:40;;;;;;;36.30;21.25;;;;;;;;;;5117480;28;20311;-65
2022/01/08 03:34:07;;;;;;;29.75;21.05;;;;;;;;;;5117653;28;20282;-65
2022/01/08 03:36:34;;;;;;;30.15;21.00;;;;;;;;;;5117183;28;20276;-64
2022/01/08 03:39:02;;;;;;;37.22;21.95;;;;;;;;;;5117540;28;20242;-64
2022/01/08 03:41:29;;;;;;;39.45;23.10;;;;;;;;;;5117741;28;20290;-65
2022/01/08 03:43:56;;;;;;;34.65;22.30;;;;;;;;;;5117062;28;20702;-64
2022/01/08 03:46:28;;;;;;;39.50;22.23;;;;;;;;;;5117297;28;20229;-65
2022/01/08 03:51:40;;;;;;;31.27;20.15;;;;;;;;;;5117031;28;20287;-65
2022/01/08 03:54:07;;;;;;;29.80;21.77;;;;;;;;;;5117087;28;20195;-64
2022/01/08 03:56:35;;;;;;;38.15;22.73;;;;;;;;;;5117603;28;20619;-65
2022/01/08 03:59:02;;;;;;;34.78;21.67;;;;;;;;;;5116986;28;20283;-64
2022/01/08 04:01:30;;;;;;;36.45;22.75;;;;;;;;;;5117199;28;20281;-64
2022/01/08 04:03:58;;;;;;;36.15;22.95;;;;;;;;;;5116942;28;20627;-64
2022/01/08 04:06:25;;;;;;;34.78;21.80;;;;;;;;;;5116768;28;20187;-64
2022/01/08 04:08:57;;;;;;;31.38;21.95;;;;;;;;;;5116949;28;20576;-65
2022/01/08 04:11:24;;;;;;;31.83;22.48;;;;;;;;;;5116745;28;20644;-64
2022/01/08 04:13:51;;;;;;;39.05;23.17;;;;;;;;;;5116699;28;20275;-64
2022/01/08 04:16:23;;;;;;;34.72;23.02;;;;;;;;;;5116618;28;20197;-64
2022/01/08 04:18:52;;;;;;;33.08;20.95;;;;;;;;;;5116968;28;20201;-64
2022/01/08 04:24:16;;;;;;;31.98;21.88;;;;;;;;;;5053542;28;20643;-65
2022/01/08 04:26:43;;;;;;;42.22;22.02;;;;;;;;;;5101040;28;20223;-64
2022/01/08 04:29:10;;;;;;;37.03;24.67;;;;;;;;;;5116353;28;20278;-65
2022/01/08 04:31:38;;;;;;;45.92;24.85;;;;;;;;;;5116576;28;20563;-65
2022/01/08 04:34:06;;;;;;;34.28;22.60;;;;;;;;;;5115865;28;20278;-64
2022/01/08 04:36:34;;;;;;;41.28;25.30;;;;;;;;;;5116449;28;20598;-65
2022/01/08 04:39:01;;;;;;;41.92;25.92;;;;;;;;;;5115869;28;20286;-64
2022/01/08 04:41:28;;;;;;;42.38;24.80;;;;;;;;;;5115833;28;20195;-65
2022/01/08 04:43:55;;;;;;;43.35;24.70;;;;;;;;;;5116763;28;20221;-64
2022/01/08 04:46:22;;;;;;;36.85;24.08;;;;;;;;;;5116079;28;20575;-65
2022/01/08 04:48:50;;;;;;;44.78;25.92;;;;;;;;;;5115659;28;20187;-64
2022/01/08 04:51:18;;;;;;;33.88;23.67;;;;;;;;;;5115934;28;20554;-64
2022/01/08 04:53:45;;;;;;;41.55;25.67;;;;;;;;;;5116704;28;20199;-64
2022/01/08 04:56:13;;;;;;;43.05;24.48;;;;;;;;;;5115812;28;20284;-65
2022/01/08 04:58:40;;;;;;;38.78;23.98;;;;;;;;;;5116095;28;20223;-65
2022/01/08 05:01:12;;;;;;;41.50;23.95;;;;;;;;;;5115587;28;20639;-65
2022/01/08 05:03:39;;;;;;;41.67;26.55;;;;;;;;;;5115568;28;20639;-64
2022/01/08 05:06:07;;;;;;;36.67;23.52;;;;;;;;;;5115926;28;20536;-64
2022/01/08 05:08:35;;;;;;;39.60;24.67;;;;;;;;;;5114780;28;20255;-64
2022/01/08 05:11:03;;;;;;;37.40;23.80;;;;;;;;;;5115490;28;20654;-65
2022/01/08 05:13:30;;;;;;;40.90;24.63;;;;;;;;;;5115164;28;20278;-64
2022/01/08 05:15:58;;;;;;;38.80;24.23;;;;;;;;;;5115147;28;20656;-65
2022/01/08 05:18:25;;;;;;;41.53;27.02;;;;;;;;;;5115353;28;20231;-65
2022/01/08 05:20:57;;;;;;;37.80;24.00;;;;;;;;;;5115058;28;20190;-64
2022/01/08 05:23:24;;;;;;;43.90;25.15;;;;;;;;;;5115380;28;20184;-65
2022/01/08 05:25:53;;;;;;;33.80;23.33;;;;;;;;;;5115257;28;20194;-65
2022/01/08 05:28:21;;;;;;;32.50;23.08;;;;;;;;;;5113749;28;20193;-65
2022/01/08 05:30:48;;;;;;;35.22;24.30;;;;;;;;;;5114296;28;20624;-65
2022/01/08 05:33:15;;;;;;;45.13;26.85;;;;;;;;;;5114024;28;20234;-65
2022/01/08 05:35:44;;;;;;;40.08;23.25;;;;;;;;;;5114357;28;20224;-66
2022/01/08 05:38:11;;;;;;;44.17;26.00;;;;;;;;;;5114233;28;20541;-64
2022/01/08 05:40:38;;;;;;;41.67;25.90;;;;;;;;;;5113881;28;20198;-64
2022/01/08 05:43:07;;;;;;;35.67;24.05;;;;;;;;;;5113852;28;20276;-64
2022/01/08 05:45:34;;;;;;;42.65;23.13;;;;;;;;;;5114316;28;20593;-65
2022/01/08 05:48:01;;;;;;;39.88;26.13;;;;;;;;;;5114333;28;20221;-64
2022/01/08 05:50:29;;;;;;;40.50;24.30;;;;;;;;;;5113675;28;20734;-65
2022/01/08 05:52:56;;;;;;;47.42;25.77;;;;;;;;;;5113842;28;20192;-64
2022/01/08 05:55:23;;;;;;;35.83;24.60;;;;;;;;;;5113931;28;20276;-65
2022/01/08 05:57:50;;;;;;;43.25;23.65;;;;;;;;;;5114096;28;20189;-64
2022/01/08 06:00:19;;;;;;;40.00;22.90;;;;;;;;;;5114286;28;20610;-65
2022/01/08 06:02:47;;;;;;;35.33;23.60;;;;;;;;;;5114128;28;20251;-64
2022/01/08 06:05:14;;;;;;;43.00;24.50;;;;;;;;;;5114744;28;20270;-65
2022/01/08 06:07:41;;;;;;;34.67;23.63;;;;;;;;;;5114166;28;20191;-64
2022/01/08 06:10:09;;;;;;;43.33;22.67;;;;;;;;;;5114245;28;20196;-65
2022/01/08 06:12:36;;;;;;;38.50;22.63;;;;;;;;;;5114121;28;20202;-65
2022/01/08 06:15:03;;;;;;;31.10;23.08;;;;;;;;;;5114023;28;20749;-64
2022/01/08 06:17:32;;;;;;;33.40;22.42;;;;;;;;;;5113683;28;20539;-65
2022/01/08 06:19:59;;;;;;;34.88;22.65;;;;;;;;;;5113075;28;20832;-65
2022/01/08 06:22:27;;;;;;;34.72;24.25;;;;;;;;;;5114084;28;20201;-65
2022/01/08 06:24:54;;;;;;;35.95;23.55;;;;;;;;;;5113962;28;20232;-65
2022/01/08 06:27:21;;;;;;;38.67;23.83;;;;;;;;;;5113771;28;20193;-64
2022/01/08 06:29:48;;;;;;;31.92;21.52;;;;;;;;;;5113940;28;20186;-65
2022/01/08 06:32:16;;;;;;;38.35;24.10;;;;;;;;;;5113323;28;20301;-64
2022/01/08 06:34:45;;;;;;;51.97;25.48;;;;;;;;;;5114415;28;20192;-66
2022/01/08 06:37:13;;;;;;;33.92;23.52;;;;;;;;;;5113609;28;20300;-65
2022/01/08 06:39:40;;;;;;;37.28;22.40;;;;;;;;;;5113188;28;20638;-65
2022/01/08 06:42:07;;;;;;;28.38;21.05;;;;;;;;;;5113638;28;20285;-65
2022/01/08 06:44:35;;;;;;;34.88;23.45;;;;;;;;;;5114023;28;20315;-65
2022/01/08 06:47:02;;;;;;;29.55;20.92;;;;;;;;;;5113949;28;20272;-64
2022/01/08 06:49:29;;;;;;;40.65;23.92;;;;;;;;;;5113295;28;20571;-64
2022/01/08 06:51:58;;;;;;;39.05;21.02;;;;;;;;;;5112657;28;20242;-65
2022/01/08 06:54:25;;;;;;;37.75;23.85;;;;;;;;;;5113463;28;20193;-65
2022/01/08 06:56:53;;;;;;;33.40;20.40;;;;;;;;;;5113206;28;20648;-65
2022/01/08 06:59:20;;;;;;;37.85;22.33;;;;;;;;;;5113006;28;20289;-65
2022/01/08 07:01:47;;;;;;;31.75;20.77;;;;;;;;;;5113756;28;20198;-65
2022/01/08 07:04:14;;;;;;;34.30;22.50;;;;;;;;;;5113344;28;20257;-65
2022/01/08 07:06:42;;;;;;;32.03;22.75;;;;;;;;;;5113473;28;20635;-65
2022/01/08 07:09:10;;;;;;;39.25;22.40;;;;;;;;;;5113616;28;20198;-65
2022/01/08 07:11:37;;;;;;;43.35;22.83;;;;;;;;;;5112985;28;20223;-66
2022/01/08 07:14:05;;;;;;;40.15;23.33;;;;;;;;;;5113702;28;20277;-65
2022/01/08 07:16:32;;;;;;;34.55;23.10;;;;;;;;;;5113386;28;20269;-64
2022/01/08 07:18:59;;;;;;;35.70;24.50;;;;;;;;;;5112607;28;20276;-65
2022/01/08 07:21:26;;;;;;;36.17;21.67;;;;;;;;;;5113777;28;20202;-64
2022/01/08 07:23:54;;;;;;;32.78;23.23;;;;;;;;;;5113559;28;20634;-64
2022/01/08 07:26:22;;;;;;;42.72;24.65;;;;;;;;;;5113207;28;20186;-64
2022/01/08 07:28:49;;;;;;;42.80;23.67;;;;;;;;;;5113678;28;20230;-64
2022/01/08 07:31:17;;;;;;;35.63;24.15;;;;;;;;;;5112626;28;20252;-65
2022/01/08 07:33:49;;;;;;;36.40;23.52;;;;;;;;;;5117495;28;20276;-65
2022/01/08 07:36:17;;;;;;;39.72;25.77;;;;;;;;;;5117325;28;20186;-64
2022/01/08 07:38:44;;;;;;;40.20;23.67;;;;;;;;;;5116720;28;20201;-65
2022/01/08 07:41:11;;;;;;;31.70;24.05;;;;;;;;;;5116959;28;20292;-65
2022/01/08 07:43:40;;;;;;;34.17;23.33;;;;;;;;;;5117551;28;20276;-65
2022/01/08 07:46:07;;;;;;;36.72;23.73;;;;;;;;;;5116899;28;20280;-64
2022/01/08 07:48:34;;;;;;;42.20;23.48;;;;;;;;;;5117197;28;20282;-65
2022/01/08 07:51:02;;;;;;;37.75;23.88;;;;;;;;;;5116852;28;20205;-65
2022/01/08 07:53:29;;;;;;;38.13;24.65;;;;;;;;;;5117000;28;20271;-64
2022/01/08 07:55:56;;;;;;;37.28;25.10;;;;;;;;;;5116622;28;20601;-64
2022/01/08 07:58:23;;;;;;;38.53;25.02;;;;;;;;;;5115875;28;20277;-66
2022/01/08 08:00:53;;;;;;;30.98;23.25;;;;;;;;;;5116570;28;20221;-64
2022/01/08 08:03:21;;;;;;;42.50;25.27;;;;;;;;;;5116928;28;20273;-64
2022/01/08 08:05:48;;;;;;;39.72;25.08;;;;;;;;;;5116546;28;20282;-65
2022/01/08 08:08:17;;;;;;;42.05;24.25;;;;;;;;;;5116762;28;20193;-65
2022/01/08 08:10:47;;;;;;;32.13;21.17;;;;;;;;;;5115877;28;20281;-65
2022/01/08 08:13:14;;;;;;;41.17;17.05;;;;;;;;;;5116645;28;20527;-65
2022/01/08 08:15:41;;;;;;;37.72;23.95;;;;;;;;;;5116425;28;20221;-65
2022/01/08 08:18:10;;;;;;;42.53;25.60;;;;;;;;;;5116266;28;20281;-65
2022/01/08 08:20:37;;;;;;;46.08;25.90;;;;;;;;;;5116482;28;20281;-66
2022/01/08 08:23:05;;;;;;;42.03;24.55;;;;;;;;;;5116180;28;20280;-66
2022/01/08 08:25:32;;;;;;;36.67;21.27;;;;;;;;;;5116123;28;20221;-65
2022/01/08 08:27:59;;;;;;;58.25;27.02;;;;;;;;;;5116130;28;20193;-65
2022/01/08 08:30:26;;;;;;;52.38;26.67;;;;;;;;;;5116352;28;20271;-65
2022/01/08 08:32:54;;;;;;;42.67;24.88;;;;;;;;;;5116088;28;20253;-65
2022/01/08 08:35:22;;;;;;;37.38;24.75;;;;;;;;;;5116829;28;20486;-65
2022/01/08 08:37:51;;;;;;;47.67;27.45;;;;;;;;;;5116061;28;20716;-64
2022/01/08 08:40:18;;;;;;;46.33;28.17;;;;;;;;;;5116183;28;20231;-65
2022/01/08 08:42:46;;;;;;;51.13;26.35;;;;;;;;;;5115833;28;20248;-64
2022/01/08 08:45:13;;;;;;;55.25;28.20;;;;;;;;;;5115435;28;20249;-65
2022/01/08 08:47:41;;;;;;;54.72;31.20;;;;;;;;;;5116005;28;20278;-65
2022/01/08 08:50:09;;;;;;;52.72;31.55;;;;;;;;;;5115646;28;20225;-65
2022/01/08 08:52:40;;;;;;;44.58;27.20;;;;;;;;;;5116246;28;20257;-64
2022/01/08 08:55:14;;;;;;;48.60;29.00;;;;;;;;;;5115949;28;20243;-64
2022/01/08 08:57:42;;;;;;;51.92;30.52;;;;;;;;;;5116101;28;20255;-65
2022/01/08 09:00:10;;;;;;;42.67;25.05;;;;;;;;;;5115521;28;20190;-65
2022/01/08 09:02:37;;;;;;;39.17;25.55;;;;;;;;;;5115809;28;20641;-65
2022/01/08 09:05:05;;;;;;;38.88;26.35;;;;;;;;;;5115805;28;20223;-65
2022/01/08 09:07:33;;;;;;;31.63;18.45;;;;;;;;;;5115597;28;20277;-65
2022/01/08 09:10:03;;;;;;;37.55;24.30;;;;;;;;;;5115519;28;20194;-66
2022/01/08 09:12:30;;;;;;;51.83;31.40;;;;;;;;;;5115351;28;20255;-65
2022/01/08 09:14:57;;;;;;;52.65;27.73;;;;;;;;;;5115409;28;20224;-65
2022/01/08 09:17:25;;;;;;;49.45;29.45;;;;;;;;;;5115399;28;20191;-65
2022/01/08 09:19:53;;;;;;;45.90;28.45;;;;;;;;;;5115284;28;20187;-64
2022/01/08 09:22:20;;;;;;;47.42;27.65;;;;;;;;;;5115756;28;20229;-65
2022/01/08 09:24:47;;;;;;;45.60;30.35;;;;;;;;;;5115248;28;20196;-63
2022/01/08 09:27:16;;;;;;;42.03;26.95;;;;;;;;;;5115543;28;20217;-67
2022/01/08 09:29:43;;;;;;;38.63;27.77;;;;;;;;;;5114817;28;20227;-69
2022/01/08 09:32:10;;;;;;;46.40;29.70;;;;;;;;;;5101361;28;20215;-69
2022/01/08 09:34:38;;;;;;;47.30;28.17;;;;;;;;;;5094339;28;20192;-65
2022/01/08 09:37:06;;;;;;;47.30;29.58;;;;;;;;;;5094210;28;20282;-65
2022/01/08 09:39:34;;;;;;;47.97;31.00;;;;;;;;;;5094342;28;20229;-65
2022/01/08 09:42:01;;;;;;;53.90;29.48;;;;;;;;;;5093847;28;20703;-65
2022/01/08 09:44:30;;;;;;;52.15;30.60;;;;;;;;;;5094292;28;20647;-66
2022/01/08 09:46:57;;;;;;;49.70;28.90;;;;;;;;;;5094622;28;20278;-64
2022/01/08 09:49:25;;;;;;;56.30;35.35;;;;;;;;;;5094124;28;20191;-65
2022/01/08 09:51:52;;;;;;;60.25;32.90;;;;;;;;;;5093990;28;20287;-66
2022/01/08 09:54:19;;;;;;;56.10;35.50;;;;;;;;;;5094203;28;20231;-66
2022/01/08 09:56:46;;;;;;;57.10;36.85;;;;;;;;;;5094649;28;20283;-65
2022/01/08 09:59:14;;;;;;;62.55;35.95;;;;;;;;;;5094484;28;20222;-65
2022/01/08 10:01:43;;;;;;;61.97;33.35;;;;;;;;;;5094075;28;20303;-66
2022/01/08 10:04:10;;;;;;;73.65;39.20;;;;;;;;;;5094028;28;20318;-65
2022/01/08 10:06:38;;;;;;;70.60;37.13;;;;;;;;;;5093874;28;20239;-65
2022/01/08 10:09:06;;;;;;;70.88;37.20;;;;;;;;;;5094142;28;20554;-65
2022/01/08 10:11:33;;;;;;;70.82;37.15;;;;;;;;;;5094034;28;20601;-65
2022/01/08 10:14:04;;;;;;;67.80;36.00;;;;;;;;;;5093718;28;20192;-65
2022/01/08 10:19:20;;;;;;;64.88;37.08;;;;;;;;;;5099856;28;20184;-65
2022/01/08 10:21:47;;;;;;;70.72;36.33;;;;;;;;;;5111414;28;20587;-65
2022/01/08 10:24:18;;;;;;;66.80;35.58;;;;;;;;;;5113325;28;20236;-66
2022/01/08 10:26:46;;;;;;;61.22;34.65;;;;;;;;;;5112849;28;20266;-66
2022/01/08 10:29:14;;;;;;;72.82;36.38;;;;;;;;;;5113484;28;20619;-66
2022/01/08 10:31:42;;;;;;;67.90;36.10;;;;;;;;;;5112821;28;20229;-66
2022/01/08 10:34:11;;;;;;;62.85;36.60;;;;;;;;;;5113280;28;20236;-65
2022/01/08 10:36:41;;;;;;;59.17;35.85;;;;;;;;;;5113354;28;20225;-65
2022/01/08 10:39:09;;;;;;;73.40;37.97;;;;;;;;;;5113222;28;20183;-65
2022/01/08 10:41:40;;;;;;;75.70;38.25;;;;;;;;;;5113096;28;20280;-66
2022/01/08 10:44:12;;;;;;;65.63;36.63;;;;;;;;;;5113558;28;20604;-65
2022/01/08 10:46:40;;;;;;;67.22;36.25;;;;;;;;;;5113779;28;20227;-66
2022/01/08 10:49:07;;;;;;;61.00;36.45;;;;;;;;;;5113343;28;20230;-65
2022/01/08 10:51:35;;;;;;;63.47;37.20;;;;;;;;;;5112973;28;20232;-65
2022/01/08 10:54:06;;;;;;;79.28;33.55;;;;;;;;;;5113755;28;20291;-65
2022/01/08 10:56:34;;;;;;;60.78;35.20;;;;;;;;;;5113531;28;20181;-67
2022/01/08 10:59:03;;;;;;;61.25;33.78;;;;;;;;;;5113850;28;20266;-66
2022/01/08 11:01:51;;;;;;;72.63;34.08;;;;;;;;;;5113401;28;20287;-65
2022/01/08 11:04:20;;;;;;;68.35;32.50;;;;;;;;;;5108725;28;20255;-65
2022/01/08 11:06:55;;;;;;;64.78;36.30;;;;;;;;;;5114250;28;20236;-65
2022/01/08 11:09:24;;;;;;;57.13;28.40;;;;;;;;;;5117173;28;20186;-65
2022/01/08 11:11:52;;;;;;;58.75;31.15;;;;;;;;;;5117107;28;20219;-66
2022/01/08 11:14:47;;;;;;;67.07;31.35;;;;;;;;;;5117468;28;20231;-66
2022/01/08 11:17:15;;;;;;;60.35;31.63;;;;;;;;;;5118040;28;20229;-65
2022/01/08 11:19:44;;;;;;;51.00;23.67;;;;;;;;;;5117324;28;20231;-65
2022/01/08 11:22:13;;;;;;;57.63;30.42;;;;;;;;;;5117150;28;20225;-65
2022/01/08 11:24:44;;;;;;;60.00;30.13;;;;;;;;;;5117270;28;20198;-65
2022/01/08 11:27:13;;;;;;;58.90;30.40;;;;;;;;;;5118026;28;20590;-65
2022/01/08 11:29:40;;;;;;;53.70;29.02;;;;;;;;;;5116885;28;20278;-66
2022/01/08 11:32:08;;;;;;;53.50;28.65;;;;;;;;;;5116809;28;20595;-65
2022/01/08 11:34:37;;;;;;;44.80;26.30;;;;;;;;;;5118004;28;20223;-66
2022/01/08 11:37:05;;;;;;;52.60;26.42;;;;;;;;;;5116954;28;20190;-66
2022/01/08 11:39:32;;;;;;;41.53;22.35;;;;;;;;;;5116844;28;20230;-65
2022/01/08 11:42:01;;;;;;;48.80;23.77;;;;;;;;;;5116158;28;20203;-66
2022/01/08 11:44:31;;;;;;;41.22;24.67;;;;;;;;;;5116675;28;20252;-66
2022/01/08 11:46:59;;;;;;;37.90;23.17;;;;;;;;;;5117049;28;20260;-65
2022/01/08 11:49:27;;;;;;;47.38;25.40;;;;;;;;;;5116461;28;20277;-65
2022/01/08 11:52:09;;;;;;;44.28;24.67;;;;;;;;;;5115950;28;20282;-65
2022/01/08 11:54:43;;;;;;;53.53;22.30;;;;;;;;;;5116034;28;20212;-65
2022/01/08 11:57:37;;;;;;;34.83;21.42;;;;;;;;;;5116462;28;20252;-67
2022/01/08 12:00:06;;;;;;;40.10;23.52;;;;;;;;;;5116912;28;20188;-66
2022/01/08 12:02:48;;;;;;;40.97;22.75;;;;;;;;;;5116923;28;20194;-66
2022/01/08 12:05:30;;;;;;;42.47;22.55;;;;;;;;;;5116373;28;20175;-65
2022/01/08 12:08:16;;;;;;;36.33;21.73;;;;;;;;;;5116466;28;20177;-66
2022/01/08 12:10:56;;;;;;;42.22;23.73;;;;;;;;;;5116159;28;20189;-65
2022/01/08 12:13:38;;;;;;;35.50;21.05;;;;;;;;;;5116351;28;20212;-65
2022/01/08 12:16:07;;;;;;;36.83;20.52;;;;;;;;;;5116256;28;20242;-66
2022/01/08 12:18:49;;;;;;;30.95;19.52;;;;;;;;;;5115183;28;20229;-66
2022/01/08 12:21:30;;;;;;;33.45;19.67;;;;;;;;;;5115832;28;20279;-66
2022/01/08 12:23:59;;;;;;;26.48;17.70;;;;;;;;;;5116556;28;20182;-66
2022/01/08 12:26:39;;;;;;;27.70;17.85;;;;;;;;;;5116188;28;20198;-66
2022/01/08 12:29:07;;;;;;;30.98;17.70;;;;;;;;;;5115842;28;20194;-66
2022/01/08 12:31:40;;;;;;;29.35;17.50;;;;;;;;;;5115772;28;20188;-66
2022/01/08 12:34:37;;;;;;;29.05;18.92;;;;;;;;;;5115906;28;20590;-65
2022/01/08 12:37:04;;;;;;;27.95;15.88;;;;;;;;;;5115991;28;20629;-66
2022/01/08 12:39:52;;;;;;;29.92;15.70;;;;;;;;;;5116179;28;20222;-65
2022/01/08 12:42:36;;;;;;;27.00;16.00;;;;;;;;;;5116401;28;20199;-66
2022/01/08 12:45:06;;;;;;;28.77;14.95;;;;;;;;;;5115953;28;20608;-66
2022/01/08 12:47:45;;;;;;;37.53;14.60;;;;;;;;;;5115609;28;20195;-66
2022/01/08 12:50:23;;;;;;;25.90;15.20;;;;;;;;;;5115483;28;20658;-66
2022/01/08 12:53:09;;;;;;;27.70;15.15;;;;;;;;;;5115836;28;20217;-66
2022/01/08 12:55:37;;;;;;;27.42;15.00;;;;;;;;;;5115552;28;20190;-66
2022/01/08 12:58:15;;;;;;;27.50;17.52;;;;;;;;;;5115178;28;20194;-66
2022/01/08 13:00:55;;;;;;;27.73;15.45;;;;;;;;;;5115938;28;20216;-65
2022/01/08 13:03:25;;;;;;;22.40;14.10;;;;;;;;;;5115188;28;20309;-66
2022/01/08 13:05:52;;;;;;;22.58;13.30;;;;;;;;;;5115143;28;20268;-66
2022/01/08 13:08:24;;;;;;;24.77;14.70;;;;;;;;;;5115468;28;20240;-66
2022/01/08 13:10:56;;;;;;;21.75;13.52;;;;;;;;;;5115694;28;20198;-67
2022/01/08 13:13:24;;;;;;;25.05;14.88;;;;;;;;;;5115127;28;20207;-67
2022/01/08 13:15:51;;;;;;;23.55;12.35;;;;;;;;;;5114933;28;20235;-66
2022/01/08 13:18:19;;;;;;;22.60;12.23;;;;;;;;;;5114997;28;20203;-67
2022/01/08 13:20:48;;;;;;;21.90;13.23;;;;;;;;;;5114520;28;20188;-67
2022/01/08 13:23:15;;;;;;;23.02;14.27;;;;;;;;;;5113675;28;20199;-67
2022/01/08 13:25:43;;;;;;;18.55;11.82;;;;;;;;;;5114752;28;20283;-67
2022/01/08 13:28:11;;;;;;;14.80;10.00;;;;;;;;;;5114729;28;20190;-66
2022/01/08 13:30:38;;;;;;;20.17;11.40;;;;;;;;;;5114234;28;20190;-67
2022/01/08 13:33:06;;;;;;;23.95;12.70;;;;;;;;;;5114960;28;20310;-66
2022/01/08 13:35:34;;;;;;;21.13;11.90;;;;;;;;;;5114993;28;20564;-68
2022/01/08 13:38:03;;;;;;;19.08;11.80;;;;;;;;;;5114807;28;20246;-67
2022/01/08 13:40:30;;;;;;;24.50;12.68;;;;;;;;;;5114739;28;20227;-67
2022/01/08 13:42:57;;;;;;;20.60;11.77;;;;;;;;;;5113786;28;20226;-68
2022/01/08 13:45:27;;;;;;;14.55;10.38;;;;;;;;;;5113816;28;20223;-67
2022/01/08 13:47:56;;;;;;;14.43;8.85;;;;;;;;;;5113981;28;20589;-68
2022/01/08 13:50:28;;;;;;;17.73;9.35;;;;;;;;;;5113819;28;20190;-67
2022/01/08 13:52:58;;;;;;;17.40;9.25;;;;;;;;;;5113786;28;20211;-67
2022/01/08 13:55:28;;;;;;;17.48;6.90;;;;;;;;;;5114832;28;20290;-68
2022/01/08 13:58:06;;;;;;;12.32;8.32;;;;;;;;;;5113726;28;20223;-68
2022/01/08 14:00:34;;;;;;;12.68;8.07;;;;;;;;;;5114070;28;20283;-67
2022/01/08 14:03:02;;;;;;;12.57;6.47;;;;;;;;;;5113549;28;20404;-67
2022/01/08 14:05:30;;;;;;;8.05;5.75;;;;;;;;;;5113229;28;20267;-67
2022/01/08 14:08:06;;;;;;;12.10;6.80;;;;;;;;;;5113640;28;20586;-67
2022/01/08 14:10:39;;;;;;;11.15;7.47;;;;;;;;;;5113081;28;20286;-68
2022/01/08 14:13:07;;;;;;;7.45;5.70;;;;;;;;;;5112957;28;20216;-68
2022/01/08 14:15:35;;;;;;;7.80;6.97;;;;;;;;;;5113603;28;20286;-68
2022/01/08 14:18:28;;;;;;;9.10;6.78;;;;;;;;;;5114397;28;20673;-67
2022/01/08 14:20:57;;;;;;;7.82;5.78;;;;;;;;;;5094520;28;20190;-68
2022/01/08 14:23:27;;;;;;;9.00;6.70;;;;;;;;;;5114524;28;20205;-67
2022/01/08 14:25:56;;;;;;;8.32;5.82;;;;;;;;;;5114475;28;20267;-68
2022/01/08 14:28:25;;;;;;;8.52;6.10;;;;;;;;;;5113069;28;20602;-68
2022/01/08 14:30:53;;;;;;;10.80;5.68;;;;;;;;;;5113141;28;20219;-67
2022/01/08 14:33:20;;;;;;;6.63;5.80;;;;;;;;;;5112909;28;20218;-67
2022/01/08 14:35:47;;;;;;;10.43;5.50;;;;;;;;;;5112789;28;20226;-66
2022/01/08 14:38:15;;;;;;;14.35;6.65;;;;;;;;;;5112624;28;20203;-71
2022/01/08 14:40:47;;;;;;;13.40;7.90;;;;;;;;;;5112626;28;20194;-73
2022/01/08 14:43:16;;;;;;;7.55;5.60;;;;;;;;;;5112866;28;20267;-71
2022/01/08 14:45:48;;;;;;;15.02;11.70;;;;;;;;;;5112877;28;20309;-71
2022/01/08 14:48:16;;;;;;;8.82;5.88;;;;;;;;;;5111227;28;20640;-67
2022/01/08 14:50:44;;;;;;;8.10;5.43;;;;;;;;;;5113196;28;20196;-66
2022/01/08 14:53:14;;;;;;;9.73;4.50;;;;;;;;;;5112743;28;20249;-66